• Join FlightAware (Why Join?)
  • Login
  • US Flag 
03:54AM EDT


 

Airport Tracker/Info


-or-


 

Live Flight TrackerFlight Track Log ✈ FIN666 ✈ 22-Jan-2014 ✈ EKCH / CPH - EFHK / HEL

Flight Track Log - Related Links

Times and Time Zones

All times are in EST time to prevent confusion due to time zone crossing. See the FIN666 flight status page for this flight to view local times or setup timezone preferences in your user account.

Time Position Orientation Groundspeed Altitude Reporting Facility
EST Latitude Longitude Course Direction KTS MPH feet Rate Location/Type
07:29AM 55.8217 13.0768 49° Northeast  Level Estimated
07:30AM 55.8894 13.2181 49° Northeast  Level Estimated
07:31AM 55.9568 13.3599 50° Northeast  Level Estimated
07:32AM 56.0241 13.5021 50° Northeast  Level Estimated
07:33AM 56.0969 13.6569 50° Northeast  Level Estimated
07:34AM 56.1695 13.8124 50° Northeast  Level Estimated
07:35AM 56.2419 13.9684 50° Northeast  Level Estimated
07:36AM 56.3141 14.1250 50° Northeast  Level Estimated
07:37AM 56.3861 14.2822 50° Northeast  Level Estimated
07:38AM 56.4579 14.4400 50° Northeast  Level Estimated
07:39AM 56.5295 14.5983 51° Northeast  Level Estimated
07:40AM 56.6010 14.7573 51° Northeast  Level Estimated
07:41AM 56.6722 14.9169 51° Northeast  Level Estimated
07:42AM 56.7432 15.0771 51° Northeast  Level Estimated
07:43AM 56.8139 15.2379 51° Northeast  Level Estimated
07:44AM 56.8845 15.3993 51° Northeast  Level Estimated
07:45AM 56.9549 15.5613 51° Northeast  Level Estimated
07:46AM 57.0251 15.7239 52° Northeast  Level Estimated
07:47AM 57.0950 15.8871 52° Northeast  Level Estimated
07:48AM 57.1648 16.0510 52° Northeast  Level Estimated
07:49AM 57.2343 16.2155 52° Northeast  Level Estimated
07:50AM 57.3036 16.3806 52° Northeast  Level Estimated
07:51AM 57.3727 16.5463 52° Northeast  Level Estimated
07:52AM 57.4416 16.7126 52° Northeast  Level Estimated
07:53AM 57.5103 16.8796 53° Northeast  Level Estimated
07:54AM 57.5787 17.0472 53° Northeast  Level Estimated
07:55AM 57.6469 17.2154 53° Northeast  Level Estimated
07:56AM 57.7149 17.3843 53° Northeast  Level Estimated
07:57AM 57.7826 17.5537 53° Northeast  Level Estimated
07:58AM 57.8502 17.7239 53° Northeast  Level Estimated
07:59AM 57.9175 17.8946 53° Northeast  Level Estimated
08:00AM 57.9846 18.0660 54° Northeast  Level Estimated
08:01AM 58.0514 18.2381 54° Northeast  Level Estimated
08:02AM 58.1180 18.4108 54° Northeast  Level Estimated
08:03AM 58.1844 18.5841 54° Northeast  Level Estimated
08:04AM 58.2505 18.7581 54° Northeast  Level Estimated
08:05AM 58.3165 18.9327 54° Northeast  Level Estimated
08:06AM 58.3821 19.1080 54° Northeast  Level Estimated
08:07AM 58.4476 19.2840 55° Northeast  Level Estimated
08:08AM 58.5127 19.4606 55° Northeast  Level Estimated
08:09AM 58.5777 19.6378 55° Northeast  Level Estimated
08:10AM 58.6424 19.8157 55° Northeast  Level Estimated
08:11AM 58.7068 19.9943 55° Northeast  Level Estimated
08:12AM 58.7710 20.1735 55° Northeast  Level Estimated
08:13AM 58.8350 20.3534 55° Northeast  Level Estimated
08:14AM 58.8987 20.5339 56° Northeast  Level Estimated
08:15AM 58.9621 20.7152 56° Northeast  Level Estimated
08:16AM 59.0253 20.8970 56° Northeast  Level Estimated
08:17AM 59.0883 21.0796 56° Northeast  Level Estimated
08:18AM 59.1510 21.2628 56° Northeast  Level Estimated
08:19AM 59.2134 21.4467 56° Northeast  Level Estimated
08:20AM 59.2747 21.6287 57° Northeast  Level Estimated
08:21AM 59.3357 21.8113 57° Northeast  Level Estimated
08:22AM 59.3965 21.9947 57° Northeast  Level Estimated
08:23AM 59.4570 22.1786 57° Northeast  Level Estimated
08:24AM 59.5173 22.3633 57° Northeast  Level Estimated
08:25AM 59.5773 22.5485 57° Northeast  Level Estimated
08:26AM 59.6371 22.7345 57° Northeast  Level Estimated
08:27AM 59.6965 22.9211 58° Northeast  Level Estimated
08:28AM 59.7558 23.1084 58° Northeast  Level Estimated
08:29AM 59.8147 23.2963 58° Northeast  Level Estimated
08:30AM 59.8734 23.4849 58° Northeast  Level Estimated
08:31AM 59.9318 23.6742 58° Northeast  Level Estimated
08:32AM 59.9899 23.8641 58° Northeast  Level Estimated
08:33AM 60.0478 24.0547 59° Northeast  Level Estimated
08:34AM 60.1054 24.2459 59° Northeast  Level Estimated
08:35AM 60.1627 24.4379 59° Northeast  Level Estimated
08:36AM 60.2198 24.6305 59° Northeast  Level Estimated
08:37AM 60.2765 24.8237 59° Northeast  Level Estimated
08:38AM 60.3172 24.9633 59° Northeast  Level Estimated
08:39AM 60.3172 24.9633 37° Northeast  Level Estimated
08:40AM 60.3172 24.9633 37° Northeast  Level Estimated
08:41AM 60.3172 24.9633 37° Northeast  Level Estimated
08:42AM 60.3172 24.9633 37° Northeast  Level Estimated
08:43AM 60.3172 24.9633 37° Northeast  Level Estimated
08:44AM 60.3172 24.9633 37° Northeast  Level Estimated
08:45AM 60.3172 24.9633 37° Northeast  Level Estimated
08:46AM 60.3172 24.9633 37° Northeast  Level Estimated
08:47AM 60.3172 24.9633 37° Northeast  Level Estimated
08:48AM 60.3172 24.9633 37° Northeast  Level Estimated
08:49AM 60.3172 24.9633 37° Northeast  Level Estimated
08:50AM 60.3172 24.9633 37° Northeast  Level Estimated
08:51AM 60.3172 24.9633 37° Northeast  Level Estimated